createdAt,value
2017-06-25T00:02:23.483Z,9.30
2017-06-25T00:04:50.190Z,8.70
2017-06-25T00:07:16.796Z,7.43
2017-06-25T00:09:43.462Z,9.57
2017-06-25T00:12:10.086Z,8.73
2017-06-25T00:14:36.751Z,8.65
2017-06-25T00:17:03.363Z,10.18
2017-06-25T00:19:29.990Z,8.65
2017-06-25T00:21:56.662Z,10.68
2017-06-25T00:24:23.270Z,10.80
2017-06-25T00:26:49.902Z,10.90
2017-06-25T00:29:16.578Z,9.23
2017-06-25T00:31:43.222Z,8.52
2017-06-25T00:34:09.870Z,9.63
2017-06-25T00:36:36.507Z,8.48
2017-06-25T00:39:03.115Z,9.75
2017-06-25T00:41:29.758Z,7.80
2017-06-25T00:43:56.372Z,11.07
2017-06-25T00:46:23.058Z,11.70
2017-06-25T00:48:49.718Z,9.10
2017-06-25T00:51:16.434Z,8.63
2017-06-25T00:53:48.822Z,11.23
2017-06-25T00:56:15.555Z,8.07
2017-06-25T00:58:42.191Z,10.48
2017-06-25T01:01:08.825Z,12.15
2017-06-25T01:03:35.466Z,8.57
2017-06-25T01:06:02.107Z,11.23
2017-06-25T01:08:28.730Z,8.77
2017-06-25T01:10:55.343Z,16.30
2017-06-25T01:13:21.946Z,9.18
2017-06-25T01:15:48.666Z,8.98
2017-06-25T01:18:15.270Z,10.20
2017-06-25T01:20:41.866Z,9.15
2017-06-25T01:23:08.494Z,9.30
2017-06-25T01:25:35.102Z,9.57
2017-06-25T01:28:01.759Z,9.65
2017-06-25T01:30:28.494Z,8.23
2017-06-25T01:32:55.478Z,9.27
2017-06-25T01:35:22.086Z,8.52
2017-06-25T01:37:48.826Z,8.85
2017-06-25T01:40:15.434Z,10.38
2017-06-25T01:42:42.110Z,10.27
2017-06-25T01:45:08.847Z,10.63
2017-06-25T01:47:35.486Z,8.85
2017-06-25T01:50:02.088Z,9.77
2017-06-25T01:52:28.767Z,9.48
2017-06-25T01:54:55.376Z,9.88
2017-06-25T01:57:22.042Z,11.40
2017-06-25T01:59:48.782Z,10.70
2017-06-25T02:02:15.381Z,10.13
2017-06-25T02:04:42.062Z,10.30
2017-06-25T02:07:08.810Z,10.20
2017-06-25T02:09:35.413Z,11.50
2017-06-25T02:12:02.087Z,9.18
2017-06-25T02:14:28.724Z,10.30
2017-06-25T02:16:55.333Z,10.15
2017-06-25T02:19:21.998Z,13.48
2017-06-25T02:21:48.743Z,11.10
2017-06-25T02:24:15.350Z,10.35
2017-06-25T02:26:41.957Z,10.40
2017-06-25T02:29:08.594Z,12.50
2017-06-25T02:31:35.293Z,10.65
2017-06-25T02:34:01.934Z,9.93
2017-06-25T02:36:28.678Z,10.27
2017-06-25T02:38:55.314Z,11.35
2017-06-25T02:41:21.970Z,10.13
2017-06-25T02:43:48.696Z,11.82
2017-06-25T02:46:15.335Z,12.07
2017-06-25T02:48:41.978Z,11.32
2017-06-25T02:51:08.613Z,11.52
2017-06-25T02:53:35.250Z,12.35
2017-06-25T02:56:01.859Z,12.82
2017-06-25T02:58:28.503Z,11.60
2017-06-25T03:00:55.114Z,10.38
2017-06-25T03:03:21.717Z,10.55
2017-06-25T03:05:48.350Z,16.80
2017-06-25T03:08:14.986Z,11.68
2017-06-25T03:10:41.621Z,12.93
2017-06-25T03:13:08.266Z,9.90
2017-06-25T03:15:34.902Z,11.38
2017-06-25T03:18:01.547Z,10.73
2017-06-25T03:20:28.386Z,10.20
2017-06-25T03:22:54.998Z,11.80
2017-06-25T03:25:21.611Z,10.13
2017-06-25T03:27:48.307Z,10.43
2017-06-25T03:30:14.946Z,14.13
2017-06-25T03:32:41.582Z,10.40
2017-06-25T03:35:08.327Z,9.80
2017-06-25T03:37:34.962Z,10.30
2017-06-25T03:40:01.602Z,10.77
2017-06-25T03:42:28.242Z,10.07
2017-06-25T03:44:54.846Z,9.48
2017-06-25T03:47:21.518Z,9.57
2017-06-25T03:49:48.259Z,9.52
2017-06-25T03:52:14.908Z,10.13
2017-06-25T03:54:41.784Z,11.00
2017-06-25T03:57:08.628Z,9.55
2017-06-25T03:59:36.189Z,9.10
2017-06-25T04:02:04.263Z,10.63
2017-06-25T04:04:31.174Z,11.07
2017-06-25T04:06:57.802Z,10.20
2017-06-25T04:09:24.402Z,9.38
2017-06-25T04:11:51.082Z,12.80
2017-06-25T04:14:19.139Z,9.15
2017-06-25T04:16:47.270Z,11.57
2017-06-25T04:19:16.106Z,10.32
2017-06-25T04:21:45.730Z,13.45
2017-06-25T04:24:17.839Z,8.82
2017-06-25T04:26:45.646Z,9.65
2017-06-25T04:29:12.979Z,9.85
2017-06-25T04:31:39.762Z,10.13
2017-06-25T04:34:06.402Z,10.30
2017-06-25T04:36:33.012Z,10.88
2017-06-25T04:38:59.678Z,10.35
2017-06-25T04:41:26.290Z,9.48
2017-06-25T04:43:52.901Z,11.40
2017-06-25T04:46:19.534Z,11.35
2017-06-25T04:48:46.233Z,9.10
2017-06-25T04:51:12.835Z,8.80
2017-06-25T04:53:39.513Z,8.75
2017-06-25T04:56:06.110Z,9.95
2017-06-25T04:58:32.797Z,10.07
2017-06-25T05:00:59.530Z,12.32
2017-06-25T05:03:26.171Z,9.55
2017-06-25T05:05:52.778Z,9.50
2017-06-25T05:08:19.449Z,11.00
2017-06-25T05:10:46.086Z,8.68
2017-06-25T05:13:12.695Z,8.77
2017-06-25T05:15:39.393Z,8.32
2017-06-25T05:18:06.103Z,8.68
2017-06-25T05:20:32.750Z,8.25
2017-06-25T05:22:59.481Z,8.23
2017-06-25T05:25:26.121Z,8.13
2017-06-25T05:27:52.769Z,8.18
2017-06-25T05:30:19.506Z,9.75
2017-06-25T05:32:46.110Z,8.77
2017-06-25T05:35:12.786Z,7.50
2017-06-25T05:38:05.663Z,7.55
2017-06-25T05:40:32.258Z,6.95
2017-06-25T05:42:58.877Z,16.05
2017-06-25T05:45:25.515Z,8.90
2017-06-25T05:47:52.154Z,7.53
2017-06-25T05:50:18.762Z,11.60
2017-06-25T05:52:45.395Z,8.05
2017-06-25T05:55:12.010Z,10.98
2017-06-25T05:57:38.618Z,7.60
2017-06-25T06:00:05.294Z,8.45
2017-06-25T06:02:31.894Z,8.05
2017-06-25T06:04:58.505Z,7.22
2017-06-25T06:07:25.126Z,8.02
2017-06-25T06:09:51.743Z,7.37
2017-06-25T06:12:18.351Z,8.75
2017-06-25T06:14:44.982Z,9.50
2017-06-25T06:17:11.662Z,10.05
2017-06-25T06:19:38.274Z,7.50
2017-06-25T06:22:04.902Z,7.55
2017-06-25T06:24:31.502Z,5.82
2017-06-25T06:26:58.215Z,5.97
2017-06-25T06:29:24.853Z,6.35
2017-06-25T06:31:51.458Z,5.22
2017-06-25T06:34:18.134Z,5.50
2017-06-25T06:36:44.870Z,5.15
2017-06-25T06:39:11.470Z,6.35
2017-06-25T06:41:38.154Z,4.30
2017-06-25T06:44:04.783Z,5.57
2017-06-25T06:46:31.438Z,6.12
2017-06-25T06:48:58.072Z,7.15
2017-06-25T06:51:24.814Z,5.20
2017-06-25T06:53:51.455Z,4.50
2017-06-25T06:56:18.054Z,8.15
2017-06-25T06:58:44.702Z,4.68
2017-06-25T07:01:11.370Z,5.70
2017-06-25T07:03:38.006Z,6.00
2017-06-25T07:06:04.750Z,4.80
2017-06-25T07:08:31.390Z,6.90
2017-06-25T07:10:57.998Z,4.95
2017-06-25T07:13:24.622Z,5.30
2017-06-25T07:15:51.302Z,4.07
2017-06-25T07:18:17.941Z,4.20
2017-06-25T07:20:44.574Z,18.85
2017-06-25T07:23:11.223Z,4.18
2017-06-25T07:25:37.858Z,7.82
2017-06-25T07:28:04.489Z,5.15
2017-06-25T07:30:31.094Z,5.32
2017-06-25T07:32:57.698Z,6.25
2017-06-25T07:35:24.322Z,3.75
2017-06-25T07:37:50.950Z,7.37
2017-06-25T07:40:17.558Z,4.57
2017-06-25T07:42:44.188Z,4.62
2017-06-25T07:45:10.790Z,4.18
2017-06-25T07:47:37.522Z,4.25
2017-06-25T07:50:04.246Z,8.13
2017-06-25T07:52:30.894Z,5.87
2017-06-25T07:54:57.538Z,5.62
2017-06-25T07:57:24.270Z,6.45
2017-06-25T07:59:50.876Z,4.68
2017-06-25T08:02:17.552Z,3.92
2017-06-25T08:04:44.289Z,4.47
2017-06-25T08:07:10.890Z,6.28
2017-06-25T08:09:37.571Z,3.55
2017-06-25T08:12:04.315Z,4.18
2017-06-25T08:14:30.955Z,5.30
2017-06-25T08:16:57.563Z,5.00
2017-06-25T08:19:24.225Z,3.30
2017-06-25T08:21:50.834Z,3.70
2017-06-25T08:24:17.507Z,3.55
2017-06-25T08:26:44.554Z,3.47
2017-06-25T08:29:11.190Z,3.30
2017-06-25T08:31:37.834Z,5.53
2017-06-25T08:34:04.462Z,6.55
2017-06-25T08:36:31.074Z,3.72
2017-06-25T08:38:57.745Z,4.30
2017-06-25T08:41:24.385Z,9.55
2017-06-25T08:43:50.997Z,4.28
2017-06-25T08:46:17.666Z,5.07
2017-06-25T08:48:44.423Z,3.08
2017-06-25T08:51:11.045Z,3.25
2017-06-25T08:53:37.654Z,3.62
2017-06-25T08:56:04.321Z,4.70
2017-06-25T08:58:30.963Z,5.93
2017-06-25T09:00:57.607Z,3.22
2017-06-25T09:03:24.243Z,3.20
2017-06-25T09:05:50.877Z,3.53
2017-06-25T09:08:17.479Z,3.92
2017-06-25T09:10:44.114Z,3.45
2017-06-25T09:13:10.803Z,3.70
2017-06-25T09:15:37.441Z,4.57
2017-06-25T09:18:04.182Z,3.40
2017-06-25T09:20:30.816Z,4.05
2017-06-25T09:22:57.458Z,3.03
2017-06-25T09:25:24.082Z,6.75
2017-06-25T09:27:50.700Z,5.68
2017-06-25T09:30:17.379Z,5.62
2017-06-25T09:32:44.123Z,7.15
2017-06-25T09:35:10.731Z,4.75
2017-06-25T09:37:37.330Z,3.43
2017-06-25T09:40:03.964Z,3.70
2017-06-25T09:42:30.558Z,3.58
2017-06-25T09:44:57.158Z,4.90
2017-06-25T09:47:23.846Z,3.40
2017-06-25T09:49:50.455Z,3.87
2017-06-25T09:52:17.170Z,3.47
2017-06-25T09:54:43.870Z,4.60
2017-06-25T09:57:10.506Z,3.42
2017-06-25T09:59:37.110Z,5.68
2017-06-25T10:02:03.755Z,4.00
2017-06-25T10:04:30.357Z,4.30
2017-06-25T10:06:56.958Z,4.43
2017-06-25T10:09:23.582Z,4.07
2017-06-25T10:11:50.194Z,3.25
2017-06-25T10:14:16.922Z,5.12
2017-06-25T10:16:43.541Z,3.33
2017-06-25T10:19:10.151Z,3.25
2017-06-25T10:21:36.759Z,4.22
2017-06-25T10:24:03.387Z,3.58
2017-06-25T10:26:30.075Z,3.30
2017-06-25T10:28:56.690Z,3.10
2017-06-25T10:31:23.322Z,3.80
2017-06-25T10:33:49.999Z,3.37
2017-06-25T10:36:16.635Z,4.60
2017-06-25T10:38:43.257Z,3.17
2017-06-25T10:41:09.870Z,3.40
2017-06-25T10:43:36.474Z,3.45
2017-06-25T10:46:03.093Z,3.97
2017-06-25T10:48:29.709Z,3.35
2017-06-25T10:50:56.318Z,6.25
2017-06-25T10:53:23.001Z,6.55
2017-06-25T10:55:49.683Z,9.93
2017-06-25T10:58:16.291Z,2.90
2017-06-25T11:00:42.918Z,5.10
2017-06-25T11:03:09.562Z,4.07
2017-06-25T11:05:36.194Z,4.28
2017-06-25T11:08:02.942Z,4.25
2017-06-25T11:10:29.538Z,3.87
2017-06-25T11:12:56.142Z,3.15
2017-06-25T11:15:22.766Z,4.15
2017-06-25T11:17:49.394Z,7.22
2017-06-25T11:20:15.999Z,3.53
2017-06-25T11:22:42.630Z,3.20
2017-06-25T11:25:09.305Z,4.97
2017-06-25T11:27:35.915Z,5.47
2017-06-25T11:30:02.547Z,2.60
2017-06-25T11:32:29.230Z,3.50
2017-06-25T11:34:55.855Z,2.67
2017-06-25T11:37:22.505Z,2.87
2017-06-25T11:39:49.110Z,4.85
2017-06-25T11:42:15.710Z,2.65
2017-06-25T11:44:42.346Z,5.40
2017-06-25T11:47:08.956Z,3.65
2017-06-25T11:49:35.561Z,3.30
2017-06-25T11:52:02.238Z,2.90
2017-06-25T11:54:28.878Z,4.28
2017-06-25T11:56:55.518Z,4.07
2017-06-25T11:59:22.142Z,8.73
2017-06-25T12:01:48.755Z,2.95
2017-06-25T12:04:15.363Z,2.37
2017-06-25T12:06:42.002Z,6.72
2017-06-25T12:09:08.610Z,2.35
2017-06-25T12:11:35.246Z,2.30
2017-06-25T12:14:01.874Z,5.65
2017-06-25T12:16:28.526Z,4.37
2017-06-25T12:18:55.166Z,4.55
2017-06-25T12:21:21.794Z,2.90
2017-06-25T12:23:48.403Z,2.67
2017-06-25T12:26:15.008Z,4.72
2017-06-25T12:28:41.726Z,3.10
2017-06-25T12:31:08.335Z,2.12
2017-06-25T12:33:35.041Z,4.03
2017-06-25T12:36:01.742Z,5.80
2017-06-25T12:38:28.337Z,3.85
2017-06-25T12:40:55.022Z,2.42
2017-06-25T12:43:22.070Z,4.32
2017-06-25T12:45:48.711Z,2.45
2017-06-25T12:48:15.342Z,4.93
2017-06-25T12:50:41.987Z,3.80
2017-06-25T12:53:08.626Z,2.12
2017-06-25T12:55:35.235Z,1.90
2017-06-25T12:58:01.867Z,4.25
2017-06-25T13:00:28.469Z,5.32
2017-06-25T13:02:55.073Z,3.28
2017-06-25T13:05:21.722Z,3.35
2017-06-25T13:07:48.359Z,2.67
2017-06-25T13:10:14.964Z,5.12
2017-06-25T13:12:41.589Z,3.30
2017-06-25T13:15:08.190Z,5.12
2017-06-25T13:17:34.852Z,3.50
2017-06-25T13:20:01.554Z,1.60
2017-06-25T13:22:28.195Z,5.03
2017-06-25T13:24:54.798Z,2.95
2017-06-25T13:27:21.426Z,5.72
2017-06-25T13:29:48.110Z,3.78
2017-06-25T13:32:14.718Z,3.40
2017-06-25T13:34:41.350Z,3.90
2017-06-25T13:37:07.957Z,8.73
2017-06-25T13:39:34.561Z,4.72
2017-06-25T13:42:01.307Z,2.70
2017-06-25T13:44:28.294Z,3.70
2017-06-25T13:46:55.237Z,3.22
2017-06-25T13:49:22.285Z,5.20
2017-06-25T13:51:49.334Z,4.22
2017-06-25T13:54:16.224Z,3.65
2017-06-25T13:56:43.228Z,6.18
2017-06-25T13:59:10.173Z,3.50
2017-06-25T14:01:37.334Z,2.78
2017-06-25T14:04:04.682Z,3.50
2017-06-25T14:06:31.934Z,4.10
2017-06-25T14:08:59.289Z,4.00
2017-06-25T14:11:26.820Z,8.93
2017-06-25T14:13:54.820Z,3.92
2017-06-25T14:16:21.707Z,2.78
2017-06-25T14:18:48.714Z,3.25
2017-06-25T14:21:15.437Z,2.55
2017-06-25T14:23:42.154Z,2.42
2017-06-25T14:26:08.898Z,3.80
2017-06-25T14:28:35.497Z,3.72
2017-06-25T14:31:02.173Z,3.10
2017-06-25T14:33:28.802Z,4.12
2017-06-25T14:35:55.406Z,7.03
2017-06-25T14:38:22.016Z,8.38
2017-06-25T14:40:48.642Z,7.57
2017-06-25T14:43:15.246Z,9.02
2017-06-25T14:45:41.854Z,4.30
2017-06-25T14:48:08.488Z,3.10
2017-06-25T14:50:35.182Z,3.53
2017-06-25T14:53:01.782Z,4.80
2017-06-25T14:55:28.420Z,2.93
2017-06-25T14:57:55.035Z,5.03
2017-06-25T15:00:21.742Z,3.12
2017-06-25T15:02:48.483Z,2.75
2017-06-25T15:05:15.118Z,3.97
2017-06-25T15:07:41.763Z,5.15
2017-06-25T15:10:08.384Z,2.50
2017-06-25T15:12:34.994Z,2.35
2017-06-25T15:15:01.599Z,5.70
2017-06-25T15:17:28.223Z,2.53
2017-06-25T15:19:54.835Z,2.70
2017-06-25T15:22:21.438Z,3.65
2017-06-25T15:24:48.067Z,3.00
2017-06-25T15:27:14.774Z,2.75
2017-06-25T15:29:41.410Z,3.00
2017-06-25T15:32:08.127Z,3.83
2017-06-25T15:34:34.730Z,3.60
2017-06-25T15:37:01.431Z,1.48
2017-06-25T15:39:28.070Z,2.25
2017-06-25T15:41:54.682Z,2.67
2017-06-25T15:44:21.289Z,3.22
2017-06-25T15:46:47.986Z,4.95
2017-06-25T15:49:14.621Z,2.60
2017-06-25T15:51:41.261Z,3.58
2017-06-25T15:54:07.998Z,3.58
2017-06-25T15:56:34.637Z,3.67
2017-06-25T15:59:01.285Z,2.47
2017-06-25T16:01:27.910Z,6.55
2017-06-25T16:03:54.563Z,4.22
2017-06-25T16:06:21.165Z,4.60
2017-06-25T16:08:47.837Z,2.78
2017-06-25T16:11:14.474Z,2.85
2017-06-25T16:13:41.114Z,4.25
2017-06-25T16:16:07.746Z,3.10
2017-06-25T16:18:34.349Z,3.00
2017-06-25T16:21:00.954Z,2.83
2017-06-25T16:23:27.669Z,5.32
2017-06-25T16:25:54.307Z,5.47
2017-06-25T16:28:20.954Z,3.60
2017-06-25T16:30:47.690Z,2.75
2017-06-25T16:33:14.330Z,9.90
2017-06-25T16:35:41.791Z,2.83
2017-06-25T16:38:08.535Z,3.58
2017-06-25T16:40:35.134Z,6.55
2017-06-25T16:43:01.810Z,3.15
2017-06-25T16:45:28.554Z,4.40
2017-06-25T16:47:55.158Z,3.45
2017-06-25T16:50:21.767Z,7.22
2017-06-25T16:52:48.478Z,5.03
2017-06-25T16:55:15.082Z,3.08
2017-06-25T16:57:41.741Z,5.43
2017-06-25T17:00:08.486Z,3.17
2017-06-25T17:02:35.085Z,3.87
2017-06-25T17:05:01.694Z,4.65
2017-06-25T17:07:28.327Z,3.28
2017-06-25T17:09:54.942Z,4.93
2017-06-25T17:12:21.550Z,3.60
2017-06-25T17:14:48.214Z,3.35
2017-06-25T17:17:14.864Z,7.07
2017-06-25T17:19:41.470Z,3.70
2017-06-25T17:22:08.178Z,4.03
2017-06-25T17:24:34.778Z,5.30
2017-06-25T17:27:01.410Z,4.00
2017-06-25T17:29:28.052Z,3.58
2017-06-25T17:31:54.689Z,3.75
2017-06-25T17:34:21.298Z,3.10
2017-06-25T17:36:47.926Z,3.60
2017-06-25T17:39:14.530Z,3.50
2017-06-25T17:41:41.134Z,3.97
2017-06-25T17:44:07.784Z,3.72
2017-06-25T17:46:34.401Z,2.72
2017-06-25T17:49:01.014Z,3.12
2017-06-25T17:51:27.702Z,3.85
2017-06-25T17:53:54.301Z,3.17
2017-06-25T17:56:20.906Z,3.60
2017-06-25T17:58:47.530Z,5.05
2017-06-25T18:01:14.143Z,3.00
2017-06-25T18:03:40.751Z,4.75
2017-06-25T18:06:07.379Z,3.97
2017-06-25T18:08:33.978Z,5.18
2017-06-25T18:11:00.614Z,3.33
2017-06-25T18:13:27.238Z,6.57
2017-06-25T18:15:53.890Z,3.30
2017-06-25T18:18:20.498Z,3.33
2017-06-25T18:20:47.121Z,3.45
2017-06-25T18:23:13.802Z,3.22
2017-06-25T18:25:40.449Z,3.30
2017-06-25T18:28:07.187Z,6.07
2017-06-25T18:30:33.825Z,3.25
2017-06-25T18:33:00.442Z,3.35
2017-06-25T18:35:27.203Z,3.22
2017-06-25T18:37:53.810Z,3.67
2017-06-25T18:40:20.443Z,3.50
2017-06-25T18:42:47.154Z,3.22
2017-06-25T18:45:13.788Z,3.37
2017-06-25T18:47:40.481Z,3.40
2017-06-25T18:50:07.193Z,4.65
2017-06-25T18:52:33.984Z,4.53
2017-06-25T18:55:00.725Z,3.37
2017-06-25T18:57:27.615Z,3.65
2017-06-25T18:59:54.561Z,3.47
2017-06-25T19:02:21.612Z,2.80
2017-06-25T19:04:48.659Z,3.20
2017-06-25T19:07:15.605Z,3.70
2017-06-25T19:09:42.551Z,3.33
2017-06-25T19:12:09.599Z,3.12
2017-06-25T19:14:36.545Z,6.93
2017-06-25T19:17:03.492Z,3.78
2017-06-25T19:19:30.438Z,5.50
2017-06-25T19:21:57.385Z,3.72
2017-06-25T19:24:24.331Z,4.10
2017-06-25T19:26:51.482Z,4.57
2017-06-25T19:29:18.530Z,3.47
2017-06-25T19:31:45.579Z,7.72
2017-06-25T19:34:12.731Z,4.00
2017-06-25T19:36:39.882Z,4.12
2017-06-25T19:39:06.931Z,3.60
2017-06-25T19:41:33.876Z,4.20
2017-06-25T19:44:00.925Z,4.45
2017-06-25T19:46:28.075Z,3.60
2017-06-25T19:48:55.227Z,5.30
2017-06-25T19:51:22.379Z,3.97
2017-06-25T19:53:49.324Z,3.97
2017-06-25T19:56:16.373Z,4.65
2017-06-25T19:58:43.320Z,4.10
2017-06-25T20:01:10.266Z,3.45
2017-06-25T20:03:37.212Z,4.32
2017-06-25T20:06:04.157Z,3.72
2017-06-25T20:08:30.853Z,4.40
2017-06-25T20:10:57.478Z,7.03
2017-06-25T20:13:24.081Z,5.80
2017-06-25T20:15:50.681Z,3.60
2017-06-25T20:18:17.411Z,4.15
2017-06-25T20:20:44.054Z,4.25
2017-06-25T20:23:10.654Z,3.60
2017-06-25T20:25:37.337Z,4.85
2017-06-25T20:28:03.965Z,4.30
2017-06-25T20:30:30.610Z,4.28
2017-06-25T20:32:57.345Z,4.93
2017-06-25T20:35:23.945Z,4.18
2017-06-25T20:37:50.554Z,5.20
2017-06-25T20:40:17.177Z,5.10
2017-06-25T20:42:43.778Z,4.15
2017-06-25T20:45:10.442Z,6.53
2017-06-25T20:47:37.119Z,4.85
2017-06-25T20:50:03.721Z,6.35
2017-06-25T20:52:30.322Z,4.60
2017-06-25T20:54:56.993Z,5.35
2017-06-25T20:57:23.633Z,4.32
2017-06-25T20:59:50.274Z,4.57
2017-06-25T21:02:17.018Z,4.10
2017-06-25T21:04:43.618Z,4.32
2017-06-25T21:07:10.217Z,4.62
2017-06-25T21:09:36.842Z,4.15
2017-06-25T21:12:03.470Z,4.75
2017-06-25T21:14:30.111Z,5.62
2017-06-25T21:16:56.856Z,4.95
2017-06-25T21:19:23.489Z,4.50
2017-06-25T21:21:50.094Z,4.05
2017-06-25T21:24:16.765Z,4.10
2017-06-25T21:26:43.376Z,4.10
2017-06-25T21:29:09.978Z,3.65
2017-06-25T21:31:36.601Z,4.12
2017-06-25T21:34:03.207Z,4.18
2017-06-25T21:36:29.861Z,4.55
2017-06-25T21:38:56.481Z,4.37
2017-06-25T21:41:23.137Z,4.95
2017-06-25T21:43:49.738Z,4.30
2017-06-25T21:46:16.417Z,5.03
2017-06-25T21:48:43.053Z,5.40
2017-06-25T21:51:09.698Z,5.95
2017-06-25T21:53:36.433Z,5.18
2017-06-25T21:56:03.038Z,5.45
2017-06-25T21:58:29.641Z,5.95
2017-06-25T22:00:56.277Z,5.90
2017-06-25T22:03:22.874Z,5.15
2017-06-25T22:05:49.481Z,5.70
2017-06-25T22:08:16.102Z,5.37
2017-06-25T22:10:42.701Z,6.05
2017-06-25T22:13:09.302Z,6.10
2017-06-25T22:15:35.923Z,5.97
2017-06-25T22:18:02.622Z,5.90
2017-06-25T22:20:29.262Z,5.32
2017-06-25T22:22:56.001Z,7.82
2017-06-25T22:25:22.641Z,5.22
2017-06-25T22:27:49.281Z,8.18
2017-06-25T22:30:15.922Z,7.57
2017-06-25T22:32:42.557Z,6.65
2017-06-25T22:35:09.212Z,5.82
2017-06-25T22:37:35.839Z,13.10
2017-06-25T22:40:02.439Z,6.07
2017-06-25T22:42:29.174Z,6.05
2017-06-25T22:44:55.853Z,5.45
2017-06-25T22:47:22.498Z,7.55
2017-06-25T22:49:49.133Z,6.07
2017-06-25T22:52:15.774Z,6.10
2017-06-25T22:54:42.378Z,5.37
2017-06-25T22:57:09.049Z,8.93
2017-06-25T22:59:35.693Z,5.68
2017-06-25T23:02:02.333Z,5.55
2017-06-25T23:04:28.973Z,6.43
2017-06-25T23:06:55.841Z,7.15
2017-06-25T23:09:22.442Z,8.20
2017-06-25T23:11:49.045Z,5.90
2017-06-25T23:14:15.677Z,6.05
2017-06-25T23:16:42.369Z,4.95
2017-06-25T23:19:08.970Z,7.68
2017-06-25T23:21:35.646Z,8.90
2017-06-25T23:24:02.254Z,5.43
2017-06-25T23:26:28.854Z,6.47
2017-06-25T23:28:55.569Z,7.82
2017-06-25T23:31:22.205Z,5.45
2017-06-25T23:33:48.842Z,5.15
2017-06-25T23:36:15.482Z,6.55
2017-06-25T23:38:42.117Z,8.75
2017-06-25T23:41:08.719Z,6.00
2017-06-25T23:43:35.346Z,9.10
2017-06-25T23:46:01.986Z,5.15
2017-06-25T23:48:28.686Z,5.50
2017-06-25T23:50:55.310Z,5.22
2017-06-25T23:53:21.958Z,4.55
2017-06-25T23:55:48.598Z,6.25
2017-06-25T23:58:15.233Z,9.07
